• Join FlightAware (Why Join?)
  • Login
  • US Flag 
02:53PM EDT


 

Airport Tracker/Info


-or-


 

Live Flight TrackerFlight Track Log ✈ AWE3417 ✈ 01-May-2013 ✈ KDCA - KCMH

Flight Track Log - Related Links

Times and Time Zones

All times are in EDT time to prevent confusion due to time zone crossing. See the AWE3417 flight status page for this flight to view local times or setup timezone preferences in your user account.

Time Position Orientation Groundspeed Altitude Reporting Facility
EDT Latitude Longitude Course Direction KTS MPH feet Rate Location/Type
08:00PM 38.7833 -77.0333 274° West 222 255 2,500  Level Potomac TRACON
08:01PM 38.7000 -77.0500 189° South 284 327 4,500 1,140 Climbing Potomac TRACON
08:02PM 38.9167 -77.3814 270° West  Level FlightAware Approximate
08:02PM 38.6833 -77.1500 258° West 272 313 5,000  Level Potomac TRACON
08:03PM 38.9333 -77.5004 270° West  Level FlightAware Approximate
08:03PM 38.6833 -77.2500 270° West 282 325 8,500  Level Potomac TRACON
08:04PM 38.9333 -77.6257 270° West  Level FlightAware Approximate
08:05PM 38.9333 -77.7509 270° West  Level FlightAware Approximate
08:06PM 38.9389 -77.8760 274° West  Level FlightAware Approximate
08:06PM 38.8175 -77.4700 308° West 342 394 13,300  Level Washington Center
08:07PM 38.8886 -77.5864 308° West 376 433 16,200 2,400 Climbing Washington Center
08:08PM 38.9406 -77.7081 299° West 383 441 18,100 1,800 Climbing Washington Center
08:09PM 38.9486 -77.8497 274° West 395 455 19,900 1,680 Climbing Washington Center
08:10PM 38.9539 -77.9994 273° West 409 471 21,600 1,620 Climbing Washington Center
08:11PM 38.9592 -78.1517 273° West 420 483 23,200 1,440 Climbing Washington Center
08:12PM 38.9639 -78.3094 272° West 432 497 24,600 1,500 Climbing Washington Center
08:13PM 38.9708 -78.4644 273° West 443 510 26,200 1,440 Climbing Washington Center
08:14PM 38.9836 -78.6253 276° West 443 510 27,500 1,200 Climbing Washington Center
08:15PM 38.9942 -78.7833 275° West 443 510 28,700 1,080 Climbing Washington Center
08:16PM 39.0031 -78.9092 275° West 448 516 29,700 600 Climbing Washington Center
08:17PM 39.0164 -79.1047 275° West 448 516 30,000 120 Climbing Washington Center
08:18PM 39.0281 -79.2736 275° West 460 529 30,000  Level Washington Center
08:19PM 39.0392 -79.4481 275° West 480 552 30,000  Level Washington Center
08:20PM 39.0508 -79.6036 276° West 485 558 30,000  Level Washington Center
08:21PM 39.0614 -79.7781 275° West 485 558 30,000  Level Washington Center
08:23PM 39.0764 -80.1058 273° West 486 559 30,000  Level Indianapolis Center
08:25PM 39.0967 -80.4506 274° West 483 556 30,000  Level Indianapolis Center
08:26PM 39.1142 -80.6522 276° West 477 549 30,000  Level Indianapolis Center
08:27PM 39.1611 -80.8142 291° West 483 556 30,000  Level Indianapolis Center
08:28PM 39.2075 -80.9750 290° West 483 556 30,000 -60 Level Indianapolis Center
08:29PM 39.2539 -81.1375 290° West 487 560 29,900 -1,320 Descending Indianapolis Center
08:30PM 39.3011 -81.3011 291° West 490 564 27,400 -2,460 Descending Indianapolis Center
08:31PM 39.3453 -81.4597 290° West 476 548 24,900 -2,400 Descending Indianapolis Center
08:32PM 39.3883 -81.6136 290° West 461 531 22,500 -2,520 Descending Indianapolis Center
08:33PM 39.4369 -81.7894 290° West 437 503 19,800 -2,340 Descending Indianapolis Center
08:34PM 39.4769 -81.9325 290° West 427 491 17,800 -2,220 Descending Indianapolis Center
08:34PM 39.4847 -81.9714 285° West 420 483 17,000 -2,340 Descending Indianapolis Center
08:35PM 39.5139 -82.0700 291° West 409 471 15,400 -2,100 Descending Indianapolis Center
08:36PM 39.5483 -82.1939 290° West 398 458 13,300 -2,220 Descending Indianapolis Center
08:37PM 39.5919 -82.3522 290° West 398 458 10,900 -1,740 Descending Indianapolis Center
08:38PM 39.6453 -82.4556 304° West 377 434 10,000 -540 Descending Indianapolis Center
08:39PM 39.7208 -82.5664 312° West 376 433 9,900 -60 Descending Indianapolis Center
08:40PM 39.7908 -82.6694 311° West 376 433 9,900 -120 Level Indianapolis Center
08:41PM 39.8547 -82.7636 311° West 352 405 9,700 -1,140 Descending Indianapolis Center
08:42PM 39.8967 -82.8553 301° West 315 362 7,600 -1,980 Descending Indianapolis Center
08:43PM 39.9114 -82.9594 280° West 295 339 6,000 -1,740 Descending Indianapolis Center
08:44PM 39.9206 -83.0694 276° West 283 326 4,200 -1,140 Descending Indianapolis Center
08:45PM 39.9792 -83.0981 339° North 216 249 3,600 -660 Descending Indianapolis Center
08:46PM 40.0117 -83.0528 47° Northeast 157 181 2,900 -720 Descending Indianapolis Center